Virginia, Washington
Current Conditions -  °F | °C
As of 10:35 PM on Wednesday 22 Oct 2014 (Local Time) from KPWT Reporting Station
Broken Clouds Broken Clouds  
Wind Chill: 54°   Ceiling: 3000
Heat Index: 54°   Visibility: 10mi
Dew Point: 54°   Wind: 12mph
Humidity: 100%   Direction: 200°SSW
Pressure: 29.67"   Gusts: NA
Location:  47.7571°N, 122.623°W
Report Text: KPWT 230535Z AUTO 20010KT 10SM FEW014 SCT022 BKN030 12/12 A2967 RMK AO1 P0001
Loading
Personal Weather Stations






























Interactive Weather Map
Tropical Storm Tracking
New forecast layout! Learn more

10-Day Weather Forecast

Advertisements
Track Severe Weather on mobile